Wetterdaten: Woche 08.04.13 - 14.04.13 (KW15)
Datum Zeit Temperatur Luftfeuchte Luftdruck Niederschlag Windrichtung Sonnenschein Solar Wind
08.04.2013 00:00 0,0 C 85 % 1012,6 hPa 0,0 l/m O-NO 0,00 h 0 W/m 6,6 km/h (2 Bft)
08.04.2013 01:00 -0,4 C 87 % 1012,0 hPa 0,0 l/m O-NO 0,00 h 0 W/m 3,6 km/h (1 Bft)
08.04.2013 02:00 -1,0 C 88 % 1010,9 hPa 0,0 l/m O-NO 0,00 h 0 W/m 4,0 km/h (1 Bft)
08.04.2013 03:00 -1,4 C 90 % 1010,0 hPa 0,0 l/m O-NO 0,00 h 0 W/m 3,7 km/h (1 Bft)
08.04.2013 04:00 -1,5 C 91 % 1009,1 hPa 0,0 l/m O-NO 0,00 h 0 W/m 2,9 km/h (1 Bft)
08.04.2013 05:00 -1,3 C 93 % 1008,1 hPa 0,0 l/m O-NO 0,00 h 0 W/m 5,2 km/h (1 Bft)
08.04.2013 06:00 -0,8 C 94 % 1007,6 hPa 0,0 l/m O-NO 0,00 h 5 W/m 7,6 km/h (2 Bft)
08.04.2013 07:00 -0,6 C 93 % 1007,1 hPa 0,0 l/m O-NO 0,00 h 25 W/m 9,0 km/h (2 Bft)
08.04.2013 08:00 -0,2 C 92 % 1007,1 hPa 0,0 l/m O 0,00 h 72 W/m 8,3 km/h (2 Bft)
08.04.2013 09:00 0,7 C 88 % 1006,9 hPa 0,0 l/m O-SO 0,17 h 178 W/m 5,9 km/h (2 Bft)
08.04.2013 10:00 2,0 C 84 % 1006,7 hPa 0,0 l/m SW 0,25 h 290 W/m 4,7 km/h (1 Bft)
08.04.2013 11:00 3,2 C 80 % 1006,8 hPa 0,0 l/m SW 0,00 h 239 W/m 5,5 km/h (1 Bft)
08.04.2013 12:00 4,9 C 74 % 1006,3 hPa 0,0 l/m SW 0,08 h 337 W/m 8,7 km/h (2 Bft)
08.04.2013 13:00 5,9 C 71 % 1005,7 hPa 0,0 l/m S-SW 0,00 h 249 W/m 10,1 km/h (2 Bft)
08.04.2013 14:00 6,5 C 70 % 1005,5 hPa 0,0 l/m SW 0,00 h 185 W/m 9,7 km/h (2 Bft)
08.04.2013 15:00 6,6 C 72 % 1005,1 hPa 0,0 l/m S-SO 0,00 h 116 W/m 5,9 km/h (2 Bft)
08.04.2013 16:00 6,7 C 74 % 1004,6 hPa 0,0 l/m S-SO 0,00 h 171 W/m 6,5 km/h (2 Bft)
08.04.2013 17:00 6,8 C 76 % 1004,3 hPa 0,0 l/m S 0,00 h 98 W/m 7,3 km/h (2 Bft)
08.04.2013 18:00 6,3 C 80 % 1004,4 hPa 0,2 l/m SW 0,00 h 29 W/m 9,9 km/h (2 Bft)
08.04.2013 19:00 5,4 C 87 % 1004,7 hPa 0,6 l/m SW 0,00 h 9 W/m 4,4 km/h (1 Bft)
08.04.2013 20:00 4,6 C 90 % 1005,1 hPa 0,8 l/m W 0,00 h 0 W/m 8,0 km/h (2 Bft)
08.04.2013 21:00 3,7 C 92 % 1005,5 hPa 0,2 l/m SW 0,00 h 0 W/m 9,1 km/h (2 Bft)
08.04.2013 22:00 3,3 C 93 % 1005,3 hPa 0,2 l/m S-SW 0,00 h 0 W/m 8,7 km/h (2 Bft)
08.04.2013 23:00 3,3 C 95 % 1005,3 hPa 0,0 l/m SW 0,00 h 0 W/m 9,1 km/h (2 Bft)
09.04.2013 00:00 3,3 C 95 % 1004,8 hPa 0,0 l/m SW 0,00 h 0 W/m 7,5 km/h (2 Bft)
09.04.2013 01:00 3,3 C 96 % 1004,7 hPa 0,0 l/m S-SW 0,00 h 0 W/m 4,3 km/h (1 Bft)
09.04.2013 02:00 3,3 C 96 % 1004,5 hPa 0,0 l/m W-SW 0,00 h 0 W/m 4,4 km/h (1 Bft)
09.04.2013 03:00 3,2 C 96 % 1004,4 hPa 0,0 l/m W-SW 0,00 h 0 W/m 5,3 km/h (1 Bft)
09.04.2013 04:00 3,1 C 96 % 1004,2 hPa 0,0 l/m SW 0,00 h 0 W/m 11,0 km/h (2 Bft)
09.04.2013 05:00 3,3 C 96 % 1004,4 hPa 0,0 l/m W-SW 0,00 h 0 W/m 13,6 km/h (3 Bft)
09.04.2013 06:00 3,3 C 95 % 1004,4 hPa 0,0 l/m W-SW 0,00 h 6 W/m 7,8 km/h (2 Bft)
09.04.2013 07:00 3,0 C 95 % 1004,4 hPa 0,0 l/m SW 0,00 h 16 W/m 9,3 km/h (2 Bft)
09.04.2013 08:00 3,5 C 96 % 1004,6 hPa 0,0 l/m S-SW 0,08 h 107 W/m 12,4 km/h (3 Bft)
09.04.2013 09:00 5,1 C 92 % 1004,1 hPa 0,0 l/m SW 0,67 h 318 W/m 15,7 km/h (3 Bft)
09.04.2013 10:00 6,8 C 84 % 1003,5 hPa 0,0 l/m S-SW 0,58 h 413 W/m 11,1 km/h (2 Bft)
09.04.2013 11:00 8,3 C 76 % 1002,8 hPa 0,0 l/m SW 0,75 h 435 W/m 13,0 km/h (3 Bft)
09.04.2013 12:00 8,9 C 70 % 1002,1 hPa 0,0 l/m SW 0,08 h 182 W/m 13,2 km/h (3 Bft)
09.04.2013 13:00 7,6 C 77 % 1002,5 hPa 0,8 l/m SW 0,00 h 68 W/m 15,0 km/h (3 Bft)
09.04.2013 14:00 5,6 C 89 % 1003,1 hPa 1,4 l/m W-SW 0,00 h 82 W/m 14,9 km/h (3 Bft)
09.04.2013 15:00 5,2 C 93 % 1003,2 hPa 0,4 l/m SW 0,00 h 112 W/m 16,9 km/h (3 Bft)
09.04.2013 16:00 6,2 C 91 % 1003,1 hPa 0,2 l/m W-SW 0,00 h 180 W/m 22,5 km/h (4 Bft)
09.04.2013 17:00 7,3 C 84 % 1002,9 hPa 0,0 l/m W-SW 0,25 h 214 W/m 31,9 km/h (5 Bft)
09.04.2013 18:00 7,8 C 81 % 1003,1 hPa 0,0 l/m W-SW 0,33 h 148 W/m 24,7 km/h (4 Bft)
09.04.2013 19:00 7,4 C 81 % 1003,4 hPa 0,0 l/m W-SW 0,08 h 19 W/m 19,1 km/h (3 Bft)
09.04.2013 20:00 6,5 C 85 % 1003,8 hPa 0,0 l/m SW 0,00 h 0 W/m 8,3 km/h (2 Bft)
09.04.2013 21:00 6,0 C 88 % 1004,2 hPa 0,0 l/m SW 0,00 h 0 W/m 6,0 km/h (2 Bft)
09.04.2013 22:00 5,9 C 90 % 1004,7 hPa 0,4 l/m W-SW 0,00 h 0 W/m 15,4 km/h (3 Bft)
09.04.2013 23:00 5,3 C 91 % 1004,9 hPa 0,8 l/m W-SW 0,00 h 0 W/m 22,9 km/h (4 Bft)
10.04.2013 00:00 4,8 C 93 % 1004,7 hPa 0,0 l/m SW 0,00 h 0 W/m 18,5 km/h (3 Bft)
10.04.2013 01:00 5,0 C 94 % 1004,7 hPa 1,2 l/m SW 0,00 h 0 W/m 20,4 km/h (4 Bft)
10.04.2013 02:00 5,1 C 95 % 1004,8 hPa 0,4 l/m SW 0,00 h 0 W/m 21,2 km/h (4 Bft)
10.04.2013 03:00 5,3 C 95 % 1005,1 hPa 0,8 l/m W-SW 0,00 h 0 W/m 23,6 km/h (4 Bft)
10.04.2013 04:00 5,4 C 93 % 1005,8 hPa 0,8 l/m W 0,00 h 0 W/m 21,7 km/h (4 Bft)
10.04.2013 05:00 5,6 C 90 % 1006,4 hPa 0,0 l/m W-SW 0,00 h 0 W/m 19,2 km/h (3 Bft)
10.04.2013 06:00 5,6 C 87 % 1006,9 hPa 0,0 l/m W-SW 0,00 h 5 W/m 18,2 km/h (3 Bft)
10.04.2013 07:00 5,5 C 85 % 1007,4 hPa 0,0 l/m W-SW 0,00 h 35 W/m 23,2 km/h (4 Bft)
10.04.2013 08:00 6,0 C 82 % 1008,1 hPa 0,0 l/m W-SW 0,92 h 219 W/m 29,2 km/h (5 Bft)
10.04.2013 09:00 7,4 C 76 % 1008,8 hPa 0,0 l/m SW 0,92 h 406 W/m 32,5 km/h (5 Bft)
10.04.2013 10:00 8,6 C 70 % 1009,1 hPa 0,0 l/m W-SW 0,83 h 516 W/m 39,2 km/h (6 Bft)
10.04.2013 11:00 9,4 C 65 % 1009,2 hPa 0,0 l/m W 0,92 h 701 W/m 34,2 km/h (5 Bft)
10.04.2013 12:00 10,1 C 61 % 1009,2 hPa 0,0 l/m W 0,58 h 531 W/m 34,2 km/h (5 Bft)
10.04.2013 13:00 9,9 C 63 % 1009,3 hPa 0,0 l/m W-NW 0,08 h 299 W/m 25,9 km/h (4 Bft)
10.04.2013 14:00 10,7 C 62 % 1009,3 hPa 0,0 l/m W-SW 0,50 h 503 W/m 28,3 km/h (4 Bft)
10.04.2013 15:00 11,7 C 56 % 1008,9 hPa 0,0 l/m W-SW 0,50 h 444 W/m 27,6 km/h (4 Bft)
10.04.2013 16:00 11,3 C 55 % 1008,9 hPa 0,0 l/m W-SW 0,17 h 143 W/m 27,1 km/h (4 Bft)
10.04.2013 17:00 11,5 C 56 % 1008,9 hPa 0,0 l/m W 0,42 h 206 W/m 21,3 km/h (4 Bft)
10.04.2013 18:00 11,2 C 57 % 1009,0 hPa 0,0 l/m W-SW 0,00 h 75 W/m 21,4 km/h (4 Bft)
10.04.2013 19:00 10,4 C 59 % 1009,3 hPa 0,0 l/m W-SW 0,00 h 16 W/m 16,6 km/h (3 Bft)
10.04.2013 20:00 9,6 C 63 % 1009,5 hPa 0,0 l/m W-SW 0,00 h 0 W/m 9,5 km/h (2 Bft)
10.04.2013 21:00 8,9 C 68 % 1010,0 hPa 0,0 l/m W 0,00 h 0 W/m 4,0 km/h (1 Bft)
10.04.2013 22:00 8,2 C 73 % 1010,1 hPa 0,0 l/m W 0,00 h 0 W/m 4,5 km/h (1 Bft)
10.04.2013 23:00 7,7 C 75 % 1009,8 hPa 0,0 l/m W 0,00 h 0 W/m 2,0 km/h (1 Bft)
11.04.2013 00:00 7,2 C 78 % 1009,4 hPa 0,0 l/m N 0,00 h 0 W/m 1,5 km/h (1 Bft)
11.04.2013 01:00 6,8 C 81 % 1008,9 hPa 0,0 l/m W 0,00 h 0 W/m 2,0 km/h (1 Bft)
11.04.2013 02:00 6,4 C 84 % 1008,3 hPa 0,0 l/m W-SW 0,00 h 0 W/m 6,4 km/h (2 Bft)
11.04.2013 03:00 6,5 C 85 % 1007,9 hPa 0,2 l/m SW 0,00 h 0 W/m 7,4 km/h (2 Bft)
11.04.2013 04:00 7,0 C 87 % 1007,7 hPa 0,2 l/m SW 0,00 h 0 W/m 18,5 km/h (3 Bft)
11.04.2013 05:00 6,5 C 91 % 1007,1 hPa 0,8 l/m SW 0,00 h 0 W/m 17,8 km/h (3 Bft)
11.04.2013 06:00 6,1 C 94 % 1006,4 hPa 0,2 l/m SW 0,00 h 7 W/m 21,0 km/h (4 Bft)
11.04.2013 07:00 6,1 C 95 % 1006,2 hPa 0,4 l/m SW 0,00 h 14 W/m 18,6 km/h (3 Bft)
11.04.2013 08:00 6,6 C 96 % 1006,2 hPa 0,4 l/m SW 0,00 h 35 W/m 13,4 km/h (3 Bft)
11.04.2013 09:00 7,5 C 95 % 1006,2 hPa 0,6 l/m SW 0,00 h 49 W/m 13,2 km/h (3 Bft)
11.04.2013 10:00 8,0 C 95 % 1006,5 hPa 0,4 l/m SW 0,00 h 66 W/m 13,7 km/h (3 Bft)
11.04.2013 11:00 8,8 C 95 % 1006,6 hPa 0,0 l/m S-SW 0,00 h 57 W/m 22,6 km/h (4 Bft)
11.04.2013 12:00 8,9 C 95 % 1006,6 hPa 0,0 l/m SW 0,00 h 132 W/m 24,5 km/h (4 Bft)
11.04.2013 13:00 10,3 C 92 % 1006,2 hPa 0,0 l/m S 0,08 h 272 W/m 23,1 km/h (4 Bft)
11.04.2013 14:00 12,4 C 85 % 1005,6 hPa 0,0 l/m S-SW 0,00 h 265 W/m 21,0 km/h (4 Bft)
11.04.2013 15:00 14,2 C 77 % 1004,7 hPa 0,0 l/m W-SW 0,00 h 264 W/m 24,1 km/h (4 Bft)
11.04.2013 16:00 14,4 C 76 % 1003,9 hPa 0,0 l/m W-SW 0,00 h 170 W/m 21,3 km/h (4 Bft)
11.04.2013 17:00 15,0 C 74 % 1003,1 hPa 0,0 l/m W-SW 0,08 h 178 W/m 19,0 km/h (3 Bft)
11.04.2013 18:00 14,6 C 77 % 1002,4 hPa 0,0 l/m SW 0,00 h 76 W/m 11,6 km/h (2 Bft)
11.04.2013 19:00 13,9 C 77 % 1002,5 hPa 0,0 l/m W 0,00 h 11 W/m 16,9 km/h (3 Bft)
11.04.2013 20:00 13,1 C 83 % 1002,5 hPa 0,4 l/m W 0,00 h 0 W/m 10,1 km/h (2 Bft)
11.04.2013 21:00 11,9 C 88 % 1001,4 hPa 0,2 l/m W 0,00 h 0 W/m 2,4 km/h (1 Bft)
11.04.2013 22:00 11,0 C 92 % 1001,6 hPa 0,0 l/m W-SW 0,00 h 0 W/m 5,1 km/h (1 Bft)
11.04.2013 23:00 10,4 C 93 % 1000,4 hPa 0,0 l/m N 0,00 h 0 W/m 0,0 km/h (0 Bft)
12.04.2013 00:00 10,1 C 94 % 1000,5 hPa 0,0 l/m W-SW 0,00 h 0 W/m 7,6 km/h (2 Bft)
12.04.2013 01:00 10,3 C 93 % 1000,9 hPa 0,0 l/m W 0,00 h 0 W/m 16,6 km/h (3 Bft)
12.04.2013 02:00 9,8 C 88 % 1001,7 hPa 0,6 l/m W-SW 0,00 h 0 W/m 32,3 km/h (5 Bft)
12.04.2013 03:00 8,9 C 91 % 1002,3 hPa 0,4 l/m W-SW 0,00 h 0 W/m 30,7 km/h (5 Bft)
12.04.2013 04:00 8,2 C 89 % 1003,5 hPa 0,2 l/m W-SW 0,00 h 0 W/m 35,3 km/h (5 Bft)
12.04.2013 05:00 7,7 C 88 % 1003,8 hPa 0,0 l/m W-SW 0,00 h 0 W/m 28,2 km/h (4 Bft)
12.04.2013 06:00 7,7 C 89 % 1004,4 hPa 0,0 l/m W-SW 0,00 h 5 W/m 26,3 km/h (4 Bft)
12.04.2013 07:00 7,6 C 88 % 1005,0 hPa 0,0 l/m W-SW 0,00 h 35 W/m 18,1 km/h (3 Bft)
12.04.2013 08:00 8,3 C 86 % 1005,7 hPa 0,0 l/m W-SW 0,67 h 170 W/m 24,4 km/h (4 Bft)
12.04.2013 09:00 8,9 C 79 % 1006,2 hPa 0,0 l/m W-SW 0,58 h 258 W/m 25,1 km/h (4 Bft)
12.04.2013 10:00 9,7 C 73 % 1006,8 hPa 0,0 l/m W-SW 0,33 h 303 W/m 26,0 km/h (4 Bft)
12.04.2013 11:00 10,4 C 70 % 1007,0 hPa 0,0 l/m W-NW 0,25 h 298 W/m 21,8 km/h (4 Bft)
12.04.2013 12:00 11,3 C 63 % 1006,9 hPa 0,0 l/m W-NW 0,42 h 332 W/m 32,6 km/h (5 Bft)
12.04.2013 13:00 12,4 C 58 % 1006,7 hPa 0,0 l/m SW 0,92 h 722 W/m 32,9 km/h (5 Bft)
12.04.2013 14:00 13,2 C 59 % 1006,5 hPa 0,0 l/m W-SW 1,00 h 829 W/m 28,4 km/h (4 Bft)
12.04.2013 15:00 13,8 C 52 % 1005,9 hPa 0,0 l/m W-NW 0,67 h 559 W/m 27,5 km/h (4 Bft)
12.04.2013 16:00 14,3 C 53 % 1005,7 hPa 0,0 l/m SW 0,67 h 483 W/m 24,5 km/h (4 Bft)
12.04.2013 17:00 12,1 C 63 % 1006,5 hPa 0,2 l/m NW 0,25 h 148 W/m 28,9 km/h (5 Bft)
12.04.2013 18:00 9,3 C 75 % 1007,0 hPa 0,0 l/m W 0,00 h 96 W/m 16,6 km/h (3 Bft)
12.04.2013 19:00 9,2 C 73 % 1007,9 hPa 0,0 l/m W-SW 0,00 h 23 W/m 21,3 km/h (4 Bft)
12.04.2013 20:00 8,2 C 73 % 1009,2 hPa 0,0 l/m SW 0,00 h 5 W/m 22,6 km/h (4 Bft)
12.04.2013 21:00 7,0 C 80 % 1010,6 hPa 0,0 l/m W-SW 0,00 h 0 W/m 19,3 km/h (3 Bft)
12.04.2013 22:00 6,7 C 85 % 1011,3 hPa 0,0 l/m SW 0,00 h 0 W/m 20,8 km/h (4 Bft)
12.04.2013 23:00 6,6 C 87 % 1012,0 hPa 0,0 l/m SW 0,00 h 0 W/m 13,3 km/h (3 Bft)
13.04.2013 00:00 6,9 C 86 % 1012,5 hPa 0,0 l/m W-SW 0,00 h 0 W/m 15,2 km/h (3 Bft)
13.04.2013 01:00 7,1 C 83 % 1012,8 hPa 0,0 l/m W-SW 0,00 h 0 W/m 22,1 km/h (4 Bft)
13.04.2013 02:00 6,8 C 84 % 1013,4 hPa 0,0 l/m W-SW 0,00 h 0 W/m 24,9 km/h (4 Bft)
13.04.2013 03:00 6,8 C 85 % 1014,1 hPa 0,0 l/m W-SW 0,00 h 0 W/m 22,8 km/h (4 Bft)
13.04.2013 04:00 6,3 C 86 % 1014,6 hPa 0,0 l/m SW 0,00 h 0 W/m 19,0 km/h (3 Bft)
13.04.2013 05:00 6,3 C 89 % 1015,1 hPa 0,0 l/m W-SW 0,00 h 0 W/m 21,6 km/h (4 Bft)
13.04.2013 06:00 6,1 C 87 % 1016,1 hPa 0,0 l/m W-SW 0,00 h 10 W/m 16,0 km/h (3 Bft)
13.04.2013 07:00 5,8 C 88 % 1017,0 hPa 0,0 l/m W-SW 0,00 h 37 W/m 17,0 km/h (3 Bft)
13.04.2013 08:00 6,6 C 87 % 1017,7 hPa 0,0 l/m W-SW 0,42 h 159 W/m 23,2 km/h (4 Bft)
13.04.2013 09:00 8,2 C 81 % 1018,2 hPa 0,0 l/m W-SW 1,00 h 413 W/m 28,2 km/h (4 Bft)
13.04.2013 10:00 10,0 C 72 % 1018,6 hPa 0,0 l/m SW 0,92 h 622 W/m 25,9 km/h (4 Bft)
13.04.2013 11:00 10,1 C 74 % 1019,4 hPa 0,4 l/m W 0,67 h 510 W/m 22,8 km/h (4 Bft)
13.04.2013 12:00 10,1 C 76 % 1019,9 hPa 0,0 l/m SW 0,42 h 485 W/m 27,9 km/h (4 Bft)
13.04.2013 13:00 12,1 C 64 % 1020,1 hPa 0,0 l/m W-SW 0,92 h 914 W/m 34,1 km/h (5 Bft)
13.04.2013 14:00 12,2 C 57 % 1020,4 hPa 0,0 l/m W 0,33 h 437 W/m 26,1 km/h (4 Bft)
13.04.2013 15:00 12,4 C 55 % 1020,4 hPa 0,0 l/m W 0,08 h 246 W/m 20,5 km/h (4 Bft)
13.04.2013 16:00 13,2 C 47 % 1020,1 hPa 0,0 l/m W 0,25 h 281 W/m 19,7 km/h (3 Bft)
13.04.2013 17:00 13,3 C 49 % 1020,1 hPa 0,0 l/m W-SW 0,25 h 237 W/m 18,4 km/h (3 Bft)
13.04.2013 18:00 13,7 C 47 % 1020,7 hPa 0,0 l/m W 0,67 h 202 W/m 16,4 km/h (3 Bft)
13.04.2013 19:00 13,1 C 48 % 1021,2 hPa 0,0 l/m W 0,08 h 34 W/m 11,7 km/h (2 Bft)
13.04.2013 20:00 11,6 C 56 % 1021,9 hPa 0,0 l/m N 0,00 h 5 W/m 1,9 km/h (1 Bft)
13.04.2013 21:00 9,2 C 66 % 1022,7 hPa 0,0 l/m N 0,00 h 0 W/m 0,3 km/h (0 Bft)
13.04.2013 22:00 7,4 C 74 % 1023,2 hPa 0,0 l/m N 0,00 h 0 W/m 0,0 km/h (0 Bft)
13.04.2013 23:00 6,3 C 78 % 1023,6 hPa 0,0 l/m N 0,00 h 0 W/m 0,0 km/h (0 Bft)
14.04.2013 00:00 5,4 C 81 % 1024,0 hPa 0,0 l/m N 0,00 h 0 W/m 0,0 km/h (0 Bft)
14.04.2013 01:00 4,6 C 83 % 1024,3 hPa 0,0 l/m N 0,00 h 0 W/m 0,0 km/h (0 Bft)
14.04.2013 02:00 4,0 C 85 % 1024,4 hPa 0,0 l/m N 0,00 h 0 W/m 0,0 km/h (0 Bft)
14.04.2013 03:00 4,2 C 90 % 1024,6 hPa 0,0 l/m N 0,00 h 0 W/m 0,0 km/h (0 Bft)
14.04.2013 04:00 4,5 C 91 % 1024,5 hPa 0,0 l/m N 0,00 h 0 W/m 0,3 km/h (0 Bft)
14.04.2013 05:00 4,9 C 91 % 1024,7 hPa 0,0 l/m N 0,00 h 0 W/m 0,3 km/h (0 Bft)
14.04.2013 06:00 5,2 C 91 % 1025,0 hPa 0,0 l/m N 0,00 h 8 W/m 0,1 km/h (0 Bft)
14.04.2013 07:00 5,8 C 91 % 1025,4 hPa 0,0 l/m N 0,00 h 36 W/m 0,0 km/h (0 Bft)
14.04.2013 08:00 7,6 C 86 % 1025,6 hPa 0,0 l/m N 0,00 h 87 W/m 0,8 km/h (0 Bft)
14.04.2013 09:00 10,0 C 77 % 1025,7 hPa 0,0 l/m W 0,25 h 262 W/m 5,1 km/h (1 Bft)
14.04.2013 10:00 13,6 C 63 % 1025,6 hPa 0,0 l/m S-SW 0,92 h 545 W/m 9,8 km/h (2 Bft)
14.04.2013 11:00 16,0 C 56 % 1025,4 hPa 0,0 l/m S 1,00 h 687 W/m 9,5 km/h (2 Bft)
14.04.2013 12:00 17,8 C 49 % 1024,9 hPa 0,0 l/m W-SW 1,00 h 782 W/m 11,6 km/h (2 Bft)
14.04.2013 13:00 19,4 C 46 % 1024,4 hPa 0,0 l/m S-SW 1,00 h 815 W/m 13,3 km/h (3 Bft)
14.04.2013 14:00 19,9 C 44 % 1023,8 hPa 0,0 l/m W-SW 1,00 h 776 W/m 9,4 km/h (2 Bft)
14.04.2013 15:00 20,6 C 42 % 1023,5 hPa 0,0 l/m O 1,00 h 711 W/m 7,6 km/h (2 Bft)
14.04.2013 16:00 21,0 C 41 % 1023,0 hPa 0,0 l/m O-SO 1,00 h 602 W/m 10,2 km/h (2 Bft)
14.04.2013 17:00 21,1 C 42 % 1022,4 hPa 0,0 l/m SO 1,00 h 442 W/m 10,3 km/h (2 Bft)
14.04.2013 18:00 20,7 C 45 % 1022,1 hPa 0,0 l/m O-SO 1,00 h 262 W/m 11,3 km/h (2 Bft)
14.04.2013 19:00 19,4 C 50 % 1021,8 hPa 0,0 l/m O-SO 0,17 h 36 W/m 7,5 km/h (2 Bft)
14.04.2013 20:00 17,8 C 56 % 1021,7 hPa 0,0 l/m N 0,00 h 6 W/m 2,5 km/h (1 Bft)
14.04.2013 21:00 15,3 C 64 % 1021,9 hPa 0,0 l/m N 0,00 h 0 W/m 1,2 km/h (1 Bft)
14.04.2013 22:00 13,2 C 70 % 1021,8 hPa 0,0 l/m N 0,00 h 0 W/m 0,9 km/h (0 Bft)
14.04.2013 23:00 11,8 C 75 % 1021,4 hPa 0,0 l/m N 0,00 h 0 W/m 1,1 km/h (0 Bft)
Min-Datum _ 08.04.13 14.04.13 11.04.13 - - - - 08.04.13
_ Min-Zeit 04:45 15:30 23:55 - - - - 00:20
Minimum _ -1,6 C 40 % 1000,1 hPa - - - - 0,0 km/h (0 Bft)
Max-Datum _ 14.04.13 09.04.13 14.04.13 09.04.13 - 08.04.13 13.04.13 10.04.13
_ Max-Zeit 17:15 00:40 09:15 14:50 - 09:40 13:50 10:40
Maximum _ 21,4 C 96 % 1025,8 hPa 1,4 l/m - 0,08 h 1051 W/m 57,9 km/h
SW (7 Bft)
Durchschnitt _ 8,2 C 79 % 1010,4 hPa #14,8 l/m W-SW #30:25 h 247 W/m 14,8 km/h (3 Bft)